Search for airport 
image banner adimage banner adimage banner ad
image banner ad

9CN1 - Hazel Hawkins Memorial Hospital

Located in Hollister, United States

ICAO - 9CN1, IATA -

Data provided by Airmate  

General information

Coordinates: N36°50'5" W121°23'11"
Elevation is 397 feet MSL.
 
View others Airports in California

Operational data

Special qualification required
Current time UTC:
Current local time:
Weather at : KCVH - Hollister Muni ( 7 km )
METAR: KCVH 210935Z AUTO 22006KT 10SM OVC007 14/12 A2993 RMK A01
View NOTAMs / SUP AIP / TFR affecting this airport [VIEW]
Communications frequencies: [VIEW]

Runways:

Airport contact information

Address: Hollister United States

Satellite view of 9CN1